Time;durP1;ratioP1;P1;durP2;ratioP2;P2;SDS_P1;SDS_P2;PMS_P1;PMS_P2;Temp;Humidity;BMP_temperature;BMP_pressure;BME280_temperature;BME280_humidity;BME280_pressure;Samples;Min_cycle;Max_cycle;Signal;HPM_P1;HPM_P2
2022/08/12 00:44:29;;;;;;;2.00;1.80;;;;;;;14.43;75.25;98906.50;106191;1278;25514;-78
2022/08/12 00:47:00;;;;;;;2.40;2.10;;;;;;;14.42;75.42;98905.45;106181;1277;138553;-78
2022/08/12 00:49:29;;;;;;;3.10;1.90;;;;;;;14.42;75.37;98909.88;106397;1277;22589;-77
2022/08/12 00:52:05;;;;;;;2.60;2.20;;;;;;;14.41;75.45;98910.27;106412;1277;24197;-78
2022/08/12 00:54:37;;;;;;;3.10;2.50;;;;;;;14.38;75.59;98905.66;106276;1279;137355;-77
2022/08/12 00:57:07;;;;;;;3.10;2.20;;;;;;;14.34;75.60;98907.45;106376;1279;23954;-78
2022/08/12 00:59:35;;;;;;;3.10;2.40;;;;;;;14.29;75.77;98906.35;106143;1278;137869;-78
2022/08/12 01:02:04;;;;;;;2.40;1.80;;;;;;;14.27;75.99;98906.13;106130;1277;22685;-78
2022/08/12 01:12:37;;;;;;;2.30;2.10;;;;;;;14.15;76.38;98905.33;106062;1279;137255;-78
2022/08/12 01:15:04;;;;;;;2.20;2.00;;;;;;;14.10;76.31;98896.02;105881;1281;23259;-78
2022/08/12 01:17:30;;;;;;;2.80;2.10;;;;;;;14.06;76.66;98892.41;105966;1281;137793;-78
2022/08/12 01:20:02;;;;;;;3.30;2.10;;;;;;;14.04;76.79;98890.54;106236;1281;22713;-78
2022/08/12 01:22:53;;;;;;;2.80;2.00;;;;;;;14.04;76.93;98891.67;106732;1278;24364;-78
2022/08/12 01:25:23;;;;;;;3.10;1.80;;;;;;;14.04;77.00;98893.37;106467;1279;22604;-78
2022/08/12 01:27:51;;;;;;;2.40;2.00;;;;;;;14.02;77.19;98896.27;106407;1279;22547;-79
2022/08/12 01:30:19;;;;;;;3.40;2.00;;;;;;;14.00;77.35;98894.64;105976;1278;137682;-78
2022/08/12 01:32:48;;;;;;;2.70;2.20;;;;;;;14.00;77.48;98893.88;106198;1277;24894;-79
2022/08/12 01:35:16;;;;;;;3.70;2.10;;;;;;;13.98;77.67;98892.20;106067;1277;138809;-78
2022/08/12 01:38:10;;;;;;;2.60;2.00;;;;;;;13.95;77.75;98894.38;106236;1279;22538;-78
2022/08/12 01:40:44;;;;;;;2.80;1.60;;;;;;;13.93;77.94;98896.42;106163;1277;25360;-79
2022/08/12 01:43:20;;;;;;;1.80;1.70;;;;;;;13.92;78.13;98900.97;106177;1278;138201;-77
2022/08/12 01:45:57;;;;;;;4.20;2.10;;;;;;;13.92;78.16;98901.45;106033;1279;22672;-77
2022/08/12 01:48:44;;;;;;;2.60;2.10;;;;;;;13.93;78.26;98900.75;105953;1278;137417;-77
2022/08/12 01:51:38;;;;;;;2.40;2.00;;;;;;;13.91;78.25;98897.00;106244;1278;25346;-78
2022/08/12 01:54:08;;;;;;;3.20;1.80;;;;;;;13.87;78.23;98892.36;106271;1278;137793;-78
2022/08/12 01:56:48;;;;;;;2.10;1.80;;;;;;;13.85;78.26;98891.95;106129;1279;22592;-78
2022/08/12 02:02:26;;;;;;;3.30;1.90;;;;;;;13.82;78.19;98892.42;106344;1277;23261;-78
2022/08/12 02:11:16;;;;;;;3.70;2.20;;;;;;;13.18;76.13;98889.14;106186;1278;137640;-78
2022/08/12 02:13:42;;;;;;;3.00;2.20;;;;;;;12.96;76.66;98888.09;106249;1277;22580;-78
2022/08/12 02:16:13;;;;;;;2.40;2.20;;;;;;;12.88;77.48;98885.67;106233;1277;23334;-79
2022/08/12 02:18:49;;;;;;;3.00;2.50;;;;;;;12.86;77.90;98881.27;106043;1277;137497;-79
2022/08/12 02:21:23;;;;;;;4.70;3.40;;;;;;;12.86;78.47;98873.17;105989;1278;23381;-78
2022/08/12 02:23:50;;;;;;;4.70;3.70;;;;;;;12.88;79.17;98872.66;105973;1277;137414;-78
2022/08/12 02:26:19;;;;;;;3.80;3.00;;;;;;;12.90;79.44;98866.37;106322;1280;24273;-78
2022/08/12 02:28:46;;;;;;;5.20;3.30;;;;;;;12.96;80.02;98869.05;105925;1277;22647;-79
2022/08/12 02:31:13;;;;;;;6.90;3.50;;;;;;;13.03;80.52;98872.28;106013;1277;137522;-78
2022/08/12 02:33:41;;;;;;;5.90;3.70;;;;;;;13.07;80.67;98873.46;106182;1277;25361;-78
2022/08/12 02:36:07;;;;;;;5.80;3.30;;;;;;;13.13;80.71;98872.10;105965;1279;137403;-78
2022/08/12 02:38:35;;;;;;;6.30;3.30;;;;;;;13.19;80.99;98867.77;106252;1279;25289;-78
2022/08/12 02:41:03;;;;;;;4.60;3.10;;;;;;;13.25;81.07;98868.12;106147;1279;138190;-79
2022/08/12 02:43:36;;;;;;;3.90;3.30;;;;;;;13.29;81.16;98863.03;106112;1277;22557;-78
2022/08/12 02:46:04;;;;;;;7.60;3.90;;;;;;;13.32;81.20;98864.23;105968;1277;24335;-78
2022/08/12 02:48:36;;;;;;;8.20;3.50;;;;;;;13.35;81.40;98868.83;105711;1277;137873;-78
2022/08/12 02:51:08;;;;;;;4.60;3.50;;;;;;;13.36;81.69;98870.55;105945;1277;22572;-80
2022/08/12 02:53:37;;;;;;;5.50;3.40;;;;;;;13.34;81.77;98869.58;106074;1277;138652;-79
2022/08/12 02:56:04;;;;;;;;;;;;;;;13.33;81.98;98870.55;106057;1277;22556;-79
2022/08/12 02:58:33;;;;;;;6.50;3.50;;;;;;;13.35;82.30;98864.96;106131;1277;25264;-79
2022/08/12 03:01:00;;;;;;;;;;;;;;;13.37;82.38;98869.73;105871;1277;137380;-79
2022/08/12 03:03:31;;;;;;;6.20;4.10;;;;;;;13.37;82.49;98869.40;106013;1277;25407;-79
2022/08/12 03:06:02;;;;;;;4.40;3.40;;;;;;;13.38;82.74;98867.56;106489;1277;138047;-78
2022/08/12 03:08:34;;;;;;;6.30;4.40;;;;;;;13.39;82.72;98865.56;106432;1277;24243;-78
2022/08/12 03:11:12;;;;;;;5.40;3.60;;;;;;;13.43;82.61;98864.83;105959;1277;138601;-79
2022/08/12 03:13:44;;;;;;;7.10;4.60;;;;;;;13.47;82.79;98862.80;106119;1277;22591;-79
2022/08/12 03:16:11;;;;;;;8.10;4.60;;;;;;;13.51;82.73;98866.59;106139;1277;24399;-78
2022/08/12 03:18:43;;;;;;;9.50;5.10;;;;;;;13.53;82.69;98866.42;106061;1277;137433;-79
2022/08/12 03:21:12;;;;;;;4.50;3.70;;;;;;;13.54;82.72;98863.28;106158;1277;22786;-78
2022/08/12 03:23:41;;;;;;;3.60;3.30;;;;;;;13.58;82.75;98864.91;106051;1277;138225;-80
2022/08/12 03:26:08;;;;;;;4.60;4.00;;;;;;;13.61;82.56;98863.64;106620;1277;25391;-79
2022/08/12 03:31:19;;;;;;;5.00;4.60;;;;;;;13.59;82.37;98857.88;106461;1277;137192;-78
2022/08/12 03:33:47;;;;;;;5.40;4.50;;;;;;;13.58;82.17;98858.94;106086;1277;25276;-79
2022/08/12 03:36:19;;;;;;;6.10;3.90;;;;;;;13.53;82.10;98856.86;105694;1277;138470;-78
2022/08/12 03:39:19;;;;;;;5.00;3.20;;;;;;;13.47;81.76;98856.29;106178;1277;25548;-79
2022/08/12 03:41:47;;;;;;;8.50;3.80;;;;;;;13.36;81.56;98856.91;106156;1277;137750;-80
2022/08/12 04:00:40;;;;;;;6.00;3.00;;;;;;;13.49;80.62;98869.02;106126;1277;137382;-79
2022/08/12 04:06:03;;;;;;;3.80;3.50;;;;;;;13.47;80.32;98877.76;105817;1279;137676;-79
2022/08/12 04:08:30;;;;;;;6.00;3.20;;;;;;;13.48;80.38;98873.93;106103;1278;22593;-79
2022/08/12 04:13:39;;;;;;;6.30;4.10;;;;;;;13.51;80.86;98872.05;106097;1277;23948;-79
2022/08/12 04:16:09;;;;;;;4.20;3.80;;;;;;;13.52;80.91;98869.59;105916;1278;22733;-79
2022/08/12 04:18:37;;;;;;;5.60;4.10;;;;;;;13.50;81.13;98866.34;105881;1277;137399;-81
2022/08/12 04:21:09;;;;;;;3.90;3.40;;;;;;;13.52;81.26;98873.92;106032;1278;25224;-80
2022/08/12 04:23:37;;;;;;;6.10;4.20;;;;;;;13.56;81.52;98877.36;106244;1277;138398;-80
2022/08/12 04:26:06;;;;;;;5.90;3.60;;;;;;;13.60;81.68;98878.90;106203;1277;24383;-79
2022/08/12 04:28:32;;;;;;;;;;;;;;;13.63;81.66;98879.61;105922;1280;22531;-79
2022/08/12 04:30:59;;;;;;;7.90;5.10;;;;;;;13.64;81.35;98875.77;106321;1277;123656;-79
2022/08/12 04:33:25;;;;;;;5.90;4.10;;;;;;;13.62;81.34;98873.99;106394;1278;25391;-79
2022/08/12 04:35:55;;;;;;;6.20;3.90;;;;;;;13.62;81.27;98879.19;105907;1277;138041;-79
2022/08/12 04:38:22;;;;;;;;;;;;;;;13.64;81.22;98879.11;105972;1277;25635;-79
2022/08/12 04:40:48;;;;;;;8.30;3.90;;;;;;;13.68;81.13;98881.45;106102;1278;22672;-79
2022/08/12 04:43:29;;;;;;;7.20;3.90;;;;;;;13.67;81.02;98883.26;106038;1278;25368;-79
2022/08/12 04:45:56;;;;;;;4.70;3.80;;;;;;;13.68;81.19;98889.29;106104;1278;23672;-80
2022/08/12 04:48:22;;;;;;;5.70;4.20;;;;;;;13.72;81.52;98892.73;105979;1277;137937;-82
2022/08/12 04:51:04;;;;;;;6.60;4.80;;;;;;;13.78;82.01;98897.56;106194;1277;24376;-79
2022/08/12 04:53:30;;;;;;;8.10;5.10;;;;;;;13.83;82.75;98899.92;105939;1278;137790;-79
2022/08/12 04:56:12;;;;;;;8.40;6.30;;;;;;;13.91;83.07;98901.98;106129;1277;23922;-79
2022/08/12 04:58:39;;;;;;;8.90;5.60;;;;;;;13.98;83.51;98904.96;106441;1277;22580;-80
2022/08/12 05:01:21;;;;;;;6.40;5.30;;;;;;;14.08;83.83;98897.68;106270;1278;22856;-78
2022/08/12 05:03:50;;;;;;;8.20;5.20;;;;;;;14.16;84.00;98900.13;106270;1278;23952;-79
2022/08/12 05:06:16;;;;;;;5.90;4.90;;;;;;;14.24;84.32;98896.71;106021;1277;137528;-79
2022/08/12 05:08:42;;;;;;;6.50;5.90;;;;;;;14.30;84.21;98895.17;106209;1278;22552;-80
2022/08/12 05:11:09;;;;;;;9.90;5.70;;;;;;;14.36;84.47;98894.32;105997;1277;137420;-79
2022/08/12 05:13:39;;;;;;;10.10;6.00;;;;;;;14.42;84.58;98896.84;105923;1278;24766;-79
2022/08/12 05:16:07;;;;;;;9.30;5.70;;;;;;;14.49;84.37;98892.45;106253;1277;22624;-79
2022/08/12 05:18:36;;;;;;;6.20;5.10;;;;;;;14.57;84.53;98894.63;106178;1280;138016;-79
2022/08/12 05:21:05;;;;;;;7.90;5.80;;;;;;;14.66;84.46;98893.08;106215;1278;22851;-79
2022/08/12 05:23:32;;;;;;;9.00;6.60;;;;;;;14.73;84.25;98889.36;106046;1277;137604;-79
2022/08/12 05:25:59;;;;;;;9.20;6.40;;;;;;;14.81;84.21;98893.80;106411;1277;22549;-79
2022/08/12 05:28:27;;;;;;;7.80;6.30;;;;;;;14.88;84.17;98896.05;106161;1277;22853;-79
2022/08/12 05:30:55;;;;;;;6.80;5.40;;;;;;;14.92;84.00;98901.67;106297;1277;138031;-79
2022/08/12 05:33:25;;;;;;;7.00;5.50;;;;;;;14.99;83.94;98902.05;106329;1278;22563;-79
2022/08/12 05:35:51;;;;;;;8.90;5.90;;;;;;;15.06;83.93;98900.02;106180;1277;137730;-79
2022/08/12 05:40:59;;;;;;;7.20;5.60;;;;;;;15.23;83.59;98908.86;105766;1280;137662;-79
2022/08/12 05:43:25;;;;;;;7.10;6.10;;;;;;;15.29;83.33;98911.76;106012;1278;25336;-79
2022/08/12 05:45:52;;;;;;;6.90;6.10;;;;;;;15.34;83.05;98909.77;106481;1277;25486;-79
2022/08/12 05:48:18;;;;;;;7.80;5.20;;;;;;;15.41;83.39;98909.46;105981;1278;138620;-79
2022/08/12 05:50:45;;;;;;;7.60;6.10;;;;;;;15.49;83.36;98906.48;105895;1281;22577;-80
2022/08/12 05:53:12;;;;;;;7.50;6.10;;;;;;;15.57;83.09;98906.37;106115;1277;137549;-79
2022/08/12 05:55:39;;;;;;;7.90;6.00;;;;;;;15.62;83.09;98906.77;105805;1277;24256;-79
2022/08/12 05:58:06;;;;;;;7.80;6.20;;;;;;;15.66;82.93;98904.50;106013;1280;22860;-79
2022/08/12 06:00:35;;;;;;;8.40;6.00;;;;;;;15.73;82.94;98897.56;106029;1280;138284;-79
2022/08/12 06:03:02;;;;;;;9.00;6.00;;;;;;;15.82;82.95;98899.98;106005;1281;22572;-79
2022/08/12 06:05:34;;;;;;;6.90;6.10;;;;;;;15.90;82.78;98903.13;105939;1280;138150;-79
2022/08/12 06:08:06;;;;;;;7.50;6.20;;;;;;;16.01;82.87;98906.21;105992;1277;22608;-78
2022/08/12 06:10:34;;;;;;;8.90;6.70;;;;;;;16.10;82.71;98910.23;106084;1278;22571;-78
2022/08/12 06:13:04;;;;;;;8.20;7.10;;;;;;;16.20;82.46;98914.01;106147;1277;137283;-78
2022/08/12 06:15:36;;;;;;;8.50;7.30;;;;;;;16.28;82.34;98911.16;105794;1281;23350;-79
2022/08/12 06:18:18;;;;;;;7.30;6.40;;;;;;;16.36;82.03;98918.89;105854;1280;138452;-79
2022/08/12 06:20:48;;;;;;;8.00;7.20;;;;;;;16.43;81.54;98917.52;105799;1277;22665;-78
2022/08/12 06:23:15;;;;;;;8.90;7.60;;;;;;;16.50;81.38;98919.68;105821;1277;137648;-78
2022/08/12 06:25:42;;;;;;;8.80;7.40;;;;;;;16.55;80.86;98924.25;106474;1281;24349;-77
2022/08/12 06:28:16;;;;;;;8.10;7.30;;;;;;;16.61;81.09;98926.63;106006;1278;22556;-78
2022/08/12 06:30:44;;;;;;;10.90;7.80;;;;;;;16.67;80.82;98922.73;105937;1278;138253;-78
2022/08/12 06:33:12;;;;;;;10.20;8.10;;;;;;;16.72;80.29;98924.38;106158;1278;24256;-79
2022/08/12 06:35:43;;;;;;;8.80;7.50;;;;;;;16.76;80.66;98922.66;106157;1277;138006;-79
2022/08/12 06:38:21;;;;;;;9.50;8.00;;;;;;;16.87;80.76;98926.23;106160;1277;25313;-78
2022/08/12 06:43:38;;;;;;;8.10;7.30;;;;;;;17.11;80.17;98921.48;106267;1277;24305;-78
2022/08/12 06:46:05;;;;;;;7.80;7.10;;;;;;;17.15;79.61;98920.27;105999;1277;23076;-77
2022/08/12 06:48:32;;;;;;;9.00;8.00;;;;;;;17.21;79.47;98920.10;106139;1278;137297;-78
2022/08/12 06:51:02;;;;;;;8.30;7.20;;;;;;;17.34;79.67;98920.48;106005;1281;22644;-78
2022/08/12 06:53:31;;;;;;;11.50;8.60;;;;;;;17.42;79.50;98923.31;106439;1277;137641;-77
2022/08/12 06:56:00;;;;;;;9.80;7.80;;;;;;;17.49;79.02;98926.22;106040;1278;25110;-77
2022/08/12 06:58:29;;;;;;;9.30;7.60;;;;;;;17.57;78.59;98928.24;106341;1277;22572;-77
2022/08/12 07:00:58;;;;;;;9.80;7.50;;;;;;;17.63;78.27;98921.73;106378;1277;137486;-77
2022/08/12 07:03:28;;;;;;;9.50;8.50;;;;;;;17.75;78.62;98921.13;106436;1277;25395;-77
2022/08/12 07:05:58;;;;;;;9.40;8.50;;;;;;;17.90;78.58;98918.73;106018;1277;138223;-77
2022/08/12 07:08:27;;;;;;;8.80;7.90;;;;;;;18.03;78.34;98916.65;106567;1277;24432;-77
2022/08/12 07:10:59;;;;;;;10.50;7.60;;;;;;;18.12;78.00;98921.55;106246;1277;138518;-77
2022/08/12 07:13:37;;;;;;;9.40;8.00;;;;;;;18.25;77.48;98917.25;106364;1277;22740;-76
2022/08/12 07:16:05;;;;;;;12.20;8.70;;;;;;;18.36;77.44;98917.67;106335;1277;24078;-76
2022/08/12 07:18:49;;;;;;;9.00;8.10;;;;;;;18.42;76.87;98913.83;106375;1277;137440;-76
2022/08/12 07:21:17;;;;;;;8.30;7.50;;;;;;;18.47;76.88;98917.89;106136;1278;25455;-77
2022/08/12 07:23:46;;;;;;;8.20;7.20;;;;;;;18.56;76.82;98915.13;105977;1277;138548;-77
2022/08/12 07:26:16;;;;;;;9.50;7.70;;;;;;;18.64;76.53;98913.80;106277;1277;24439;-76
2022/08/12 07:28:52;;;;;;;9.20;8.30;;;;;;;18.66;75.88;98916.98;106387;1277;25302;-76
2022/08/12 07:31:26;;;;;;;12.40;8.50;;;;;;;18.73;75.64;98918.97;106380;1277;22584;-76
2022/08/12 07:33:55;;;;;;;9.20;8.20;;;;;;;18.83;75.43;98918.98;106112;1277;25326;-76
2022/08/12 07:37:19;;;;;;;9.70;8.80;;;;;;;18.94;75.45;98922.77;106203;1278;137542;-77
2022/08/12 07:40:38;;;;;;;9.20;8.30;;;;;;;19.18;75.04;98915.42;107116;1277;22611;-77
2022/08/12 07:44:00;;;;;;;10.30;9.30;;;;;;;19.42;74.67;98917.02;103168;1316;564953;-76
2022/08/12 07:47:03;;;;;;;10.50;9.30;;;;;;;19.58;73.62;98910.10;102892;1313;546102;-77
2022/08/12 07:49:35;;;;;;;10.30;9.40;;;;;;;19.72;73.74;98907.63;104515;1293;22584;-76
2022/08/12 07:52:09;;;;;;;10.30;9.50;;;;;;;19.84;72.97;98904.75;104635;1292;22618;-75
2022/08/12 07:54:37;;;;;;;9.70;8.90;;;;;;;19.90;72.48;98899.87;104569;1292;137119;-76
2022/08/12 07:57:05;;;;;;;10.10;9.10;;;;;;;19.95;72.30;98900.80;104772;1292;24408;-75
2022/08/12 07:59:52;;;;;;;10.50;8.60;;;;;;;19.99;71.80;98899.67;100832;1290;5394137;-75
2022/08/12 08:02:53;;;;;;;9.90;9.00;;;;;;;20.06;71.60;98895.84;104774;1290;22576;-75
2022/08/12 08:05:26;;;;;;;9.00;8.10;;;;;;;20.07;71.31;98896.09;105062;1290;137322;-75
2022/08/12 08:08:00;;;;;;;9.60;8.80;;;;;;;20.09;71.23;98896.30;104841;1290;22560;-76
2022/08/12 08:10:29;;;;;;;9.60;8.70;;;;;;;20.12;70.87;98896.80;104966;1289;24402;-76
2022/08/12 08:13:03;;;;;;;10.70;9.70;;;;;;;20.16;70.57;98897.04;105078;1289;136844;-75
2022/08/12 08:15:34;;;;;;;10.70;9.70;;;;;;;20.18;70.43;98905.31;105248;1289;25262;-75
2022/08/12 08:18:06;;;;;;;12.60;9.10;;;;;;;20.18;70.13;98904.86;105424;1289;137275;-75
2022/08/12 08:20:40;;;;;;;9.00;8.10;;;;;;;20.29;70.28;98907.03;105012;1290;22730;-76
2022/08/12 08:23:15;;;;;;;7.70;7.00;;;;;;;20.39;70.26;98909.77;104624;1291;137620;-75
2022/08/12 08:25:56;;;;;;;8.90;7.40;;;;;;;20.58;70.06;98909.93;105110;1290;22546;-75
2022/08/12 08:28:23;;;;;;;9.00;7.50;;;;;;;20.72;69.59;98904.82;104865;1289;24077;-77
2022/08/12 08:30:52;;;;;;;8.30;7.50;;;;;;;20.86;69.00;98904.55;104981;1289;136906;-77
2022/08/12 08:33:19;;;;;;;6.80;6.10;;;;;;;20.95;68.66;98900.79;105101;1290;25656;-76
2022/08/12 08:35:47;;;;;;;8.00;7.20;;;;;;;21.07;68.28;98903.25;105878;1289;137016;-76
2022/08/12 08:38:17;;;;;;;8.60;7.80;;;;;;;21.04;67.51;98901.86;105666;1289;22549;-77
2022/08/12 08:43:40;;;;;;;9.00;8.00;;;;;;;20.94;67.44;98905.68;105537;1289;24237;-76
2022/08/12 08:46:07;;;;;;;8.60;7.80;;;;;;;21.06;67.40;98903.60;105130;1289;24233;-76
2022/08/12 08:48:35;;;;;;;8.50;7.70;;;;;;;21.16;67.23;98907.52;105242;1289;137596;-76
2022/08/12 08:51:04;;;;;;;7.60;6.70;;;;;;;21.16;67.06;98907.63;105232;1289;22715;-75
2022/08/12 08:53:31;;;;;;;8.50;7.70;;;;;;;21.30;66.89;98900.73;105501;1289;136983;-75
2022/08/12 08:55:59;;;;;;;8.80;7.40;;;;;;;21.58;67.23;98905.01;105454;1290;22654;-75
2022/08/12 08:58:27;;;;;;;9.00;8.10;;;;;;;21.84;66.74;98907.77;105166;1290;22634;-78
2022/08/12 09:00:55;;;;;;;8.00;7.30;;;;;;;22.03;65.67;98910.53;105522;1289;136985;-77
2022/08/12 09:03:22;;;;;;;8.40;7.60;;;;;;;22.12;65.63;98910.17;105143;1290;22576;-77
2022/08/12 09:06:04;;;;;;;7.50;6.80;;;;;;;22.29;65.67;98913.83;105068;1290;137369;-77
2022/08/12 09:08:31;;;;;;;;;;;;;;;22.52;64.90;98908.54;105172;1289;24031;-77
2022/08/12 09:13:26;;;;;;;8.60;7.70;;;;;;;22.64;64.40;98914.88;104643;1292;123395;-77
2022/08/12 09:13:48;;;;;;;9.80;8.80;;;;;;;22.63;63.79;98914.45;104844;1292;25593;-76
2022/08/12 09:16:16;;;;;;;11.10;8.00;;;;;;;22.80;63.94;98921.44;105830;1292;23802;-76
2022/08/12 09:18:45;;;;;;;8.80;7.30;;;;;;;23.01;63.66;98920.98;104627;1292;136955;-77
2022/08/12 09:21:12;;;;;;;8.70;7.70;;;;;;;23.08;63.22;98919.39;104780;1292;23044;-76
2022/08/12 09:23:41;;;;;;;8.50;7.70;;;;;;;23.23;62.07;98916.44;104853;1292;137541;-76
2022/08/12 09:26:22;;;;;;;7.30;6.60;;;;;;;23.27;61.46;98921.42;104599;1292;24439;-77
2022/08/12 09:28:50;;;;;;;8.10;7.20;;;;;;;23.21;61.42;98921.23;104512;1292;22582;-77
2022/08/12 09:31:17;;;;;;;8.80;6.50;;;;;;;23.25;61.30;98922.73;105391;1292;136643;-77
2022/08/12 09:33:45;;;;;;;9.10;6.50;;;;;;;23.17;60.39;98919.09;105265;1292;23250;-78
2022/08/12 09:36:13;;;;;;;7.30;6.50;;;;;;;23.06;60.66;98919.82;105179;1291;136967;-76
2022/08/12 09:38:42;;;;;;;6.10;5.60;;;;;;;22.98;60.63;98917.98;104992;1292;22589;-77
2022/08/12 09:41:10;;;;;;;5.90;5.40;;;;;;;23.02;60.91;98917.00;104386;1292;137988;-76
2022/08/12 09:46:19;;;;;;;5.40;4.90;;;;;;;23.12;60.60;98915.89;105354;1292;22681;-77
2022/08/12 09:48:47;;;;;;;5.90;5.40;;;;;;;23.29;60.56;98912.34;104827;1291;136782;-77
2022/08/12 09:51:15;;;;;;;5.80;5.20;;;;;;;23.47;60.55;98909.23;104460;1291;22604;-77
2022/08/12 09:53:42;;;;;;;5.10;4.60;;;;;;;23.66;60.14;98905.73;104446;1291;137146;-77
2022/08/12 09:56:16;;;;;;;4.70;4.30;;;;;;;23.83;59.34;98904.61;104820;1291;22673;-77
2022/08/12 09:58:49;;;;;;;5.00;4.50;;;;;;;23.89;58.37;98894.81;104565;1291;23884;-77
2022/08/12 10:01:18;;;;;;;4.90;4.40;;;;;;;23.95;57.75;98891.96;104392;1292;136821;-76
2022/08/12 10:04:02;;;;;;;4.90;4.20;;;;;;;24.03;57.72;98890.73;104721;1292;25379;-77
2022/08/12 10:06:29;;;;;;;6.00;3.60;;;;;;;24.17;58.13;98898.09;104783;1292;136764;-77
2022/08/12 10:08:56;;;;;;;4.90;3.80;;;;;;;24.32;58.06;98891.08;105137;1291;22578;-77
2022/08/12 10:14:05;;;;;;;4.80;3.40;;;;;;;24.56;57.08;98884.45;104614;1291;26687;-77
2022/08/12 10:16:33;;;;;;;4.40;3.90;;;;;;;24.63;56.10;98883.39;104715;1291;22659;-77
2022/08/12 10:19:04;;;;;;;6.20;3.90;;;;;;;24.69;55.40;98885.25;104714;1291;136760;-77
2022/08/12 10:21:35;;;;;;;4.90;3.70;;;;;;;24.79;55.58;98891.11;104779;1292;22572;-77
2022/08/12 10:24:20;;;;;;;5.60;3.80;;;;;;;24.88;54.76;98892.79;104497;1292;136869;-77
2022/08/12 10:30:06;;;;;;;4.10;3.80;;;;;;;25.02;54.55;98881.67;104397;1292;137110;-77
2022/08/12 10:32:34;;;;;;;4.00;3.60;;;;;;;25.13;54.58;98882.11;104787;1292;25587;-77
2022/08/12 10:35:15;;;;;;;3.90;3.60;;;;;;;25.26;53.28;98875.64;104657;1292;137126;-77
2022/08/12 10:37:44;;;;;;;4.40;4.00;;;;;;;25.26;53.09;98873.81;104455;1292;22609;-76
2022/08/12 10:40:25;;;;;;;4.20;3.80;;;;;;;25.26;53.32;98872.23;105201;1292;23116;-77
2022/08/12 10:45:52;;;;;;;4.70;3.70;;;;;;;25.39;53.91;98864.20;104561;1292;25555;-77
2022/08/12 10:48:19;;;;;;;5.20;4.00;;;;;;;25.49;53.81;98865.98;105243;1291;137443;-77
2022/08/12 10:51:03;;;;;;;4.70;4.00;;;;;;;25.63;53.26;98863.99;104976;1292;22659;-80
2022/08/12 10:53:31;;;;;;;4.40;3.40;;;;;;;25.76;52.91;98861.09;104709;1291;139475;-79
2022/08/12 10:55:58;;;;;;;4.70;4.30;;;;;;;25.88;52.42;98861.10;104801;1291;22763;-80
2022/08/12 10:58:27;;;;;;;4.20;3.60;;;;;;;25.93;51.95;98863.48;105167;1292;22603;-79
2022/08/12 11:00:54;;;;;;;6.20;4.40;;;;;;;26.00;51.57;98863.54;104693;1292;137577;-79
2022/08/12 11:03:21;;;;;;;5.40;4.00;;;;;;;26.07;51.16;98857.80;104889;1292;22671;-78
2022/08/12 11:05:49;;;;;;;6.50;3.80;;;;;;;26.10;51.51;98860.48;104786;1291;137084;-79
2022/08/12 11:08:30;;;;;;;4.60;3.50;;;;;;;26.18;51.37;98858.25;104797;1292;25420;-79
2022/08/12 11:10:57;;;;;;;4.10;3.40;;;;;;;26.29;50.74;98842.14;105035;1292;137215;-77
2022/08/12 11:13:25;;;;;;;5.20;3.60;;;;;;;26.36;49.90;98842.98;104748;1292;22745;-77
2022/08/12 11:16:06;;;;;;;3.90;3.60;;;;;;;26.42;49.32;98838.83;104763;1292;24450;-77
2022/08/12 11:18:33;;;;;;;3.60;3.40;;;;;;;26.45;49.21;98834.22;104614;1292;137961;-78
2022/08/12 11:21:14;;;;;;;3.70;3.40;;;;;;;26.55;49.44;98830.36;104852;1292;25320;-78
2022/08/12 11:23:41;;;;;;;3.90;3.60;;;;;;;26.65;49.20;98830.20;104288;1292;137537;-79
2022/08/12 11:26:08;;;;;;;3.50;3.20;;;;;;;26.80;49.13;98824.73;104784;1292;22848;-77
2022/08/12 11:28:36;;;;;;;4.40;3.40;;;;;;;26.93;48.73;98823.54;105124;1291;22595;-80
2022/08/12 11:31:05;;;;;;;3.90;3.60;;;;;;;27.06;48.20;98821.43;105465;1291;137208;-78
2022/08/12 11:33:48;;;;;;;3.50;3.20;;;;;;;27.15;47.61;98819.25;104666;1292;29576;-79
2022/08/12 11:36:16;;;;;;;3.80;3.30;;;;;;;27.26;47.25;98820.02;104780;1292;137051;-77
2022/08/12 11:38:44;;;;;;;4.20;3.70;;;;;;;27.34;47.23;98814.91;104815;1292;22802;-78
2022/08/12 11:41:25;;;;;;;3.60;3.20;;;;;;;27.39;47.05;98814.52;105095;1292;137281;-78
2022/08/12 11:43:52;;;;;;;3.90;3.50;;;;;;;27.48;47.53;98813.94;104585;1292;25385;-78
2022/08/12 11:46:19;;;;;;;4.20;3.80;;;;;;;27.61;47.49;98815.78;104868;1292;26623;-79
2022/08/12 11:48:46;;;;;;;5.20;3.90;;;;;;;27.67;46.72;98817.12;104595;1292;137478;-77
2022/08/12 11:51:27;;;;;;;5.20;3.40;;;;;;;27.74;46.31;98817.16;105162;1291;25478;-76
2022/08/12 11:53:54;;;;;;;4.40;3.50;;;;;;;27.78;46.12;98819.86;104547;1292;137367;-79
2022/08/12 11:56:21;;;;;;;5.20;3.50;;;;;;;27.90;46.05;98816.80;105201;1292;22556;-77
2022/08/12 11:58:49;;;;;;;4.30;3.90;;;;;;;28.06;45.91;98816.42;104979;1292;25329;-78
2022/08/12 12:01:16;;;;;;;4.20;3.90;;;;;;;28.15;45.82;98815.50;104974;1292;137069;-78
2022/08/12 12:03:43;;;;;;;3.50;3.10;;;;;;;28.22;45.24;98817.08;104927;1292;22712;-78
2022/08/12 12:06:11;;;;;;;3.70;3.50;;;;;;;28.34;44.47;98812.23;104749;1292;137273;-75
2022/08/12 12:08:38;;;;;;;7.00;3.70;;;;;;;28.43;44.01;98814.88;104368;1292;25369;-75
2022/08/12 12:11:20;;;;;;;3.90;3.50;;;;;;;28.50;44.20;98817.81;104582;1292;137303;-78
2022/08/12 12:14:01;;;;;;;4.10;3.80;;;;;;;28.47;43.82;98813.08;104470;1293;23978;-76
2022/08/12 12:16:28;;;;;;;3.80;3.50;;;;;;;28.46;43.92;98810.00;104501;1292;25332;-76
2022/08/12 12:19:09;;;;;;;3.70;3.40;;;;;;;28.54;44.60;98812.52;104617;1293;137149;-76
2022/08/12 12:21:38;;;;;;;3.80;3.50;;;;;;;28.63;44.43;98809.07;104485;1292;24220;-76
2022/08/12 12:24:06;;;;;;;4.50;4.10;;;;;;;28.74;44.13;98810.49;104745;1292;137236;-76
2022/08/12 12:26:47;;;;;;;4.60;4.00;;;;;;;28.83;43.55;98808.58;104465;1292;25227;-76
2022/08/12 12:29:14;;;;;;;4.30;3.90;;;;;;;28.80;42.97;98802.40;104636;1291;137459;-76
2022/08/12 12:31:42;;;;;;;3.60;3.30;;;;;;;28.83;43.29;98799.80;104922;1291;22654;-77
2022/08/12 12:34:09;;;;;;;5.80;2.80;;;;;;;28.91;42.09;98795.98;104517;1292;22565;-78
2022/08/12 12:36:36;;;;;;;4.00;3.10;;;;;;;28.93;42.15;98792.77;104669;1291;137539;-78
2022/08/12 12:39:03;;;;;;;4.20;3.80;;;;;;;28.96;42.29;98789.39;104677;1291;25406;-77
2022/08/12 12:41:30;;;;;;;3.60;3.30;;;;;;;28.96;43.24;98784.42;104715;1291;137413;-78
2022/08/12 12:43:57;;;;;;;3.50;3.20;;;;;;;29.09;42.63;98780.83;104908;1292;24276;-77
2022/08/12 12:46:25;;;;;;;2.70;2.50;;;;;;;29.19;42.06;98780.89;104572;1290;22551;-79
2022/08/12 12:48:52;;;;;;;3.70;3.40;;;;;;;29.26;41.09;98777.80;104381;1292;137487;-77
2022/08/12 12:51:19;;;;;;;3.40;3.10;;;;;;;29.32;40.94;98774.96;104695;1292;25646;-78
2022/08/12 12:53:48;;;;;;;3.60;2.70;;;;;;;29.37;41.08;98777.64;104805;1291;137333;-78
2022/08/12 12:56:21;;;;;;;2.90;2.70;;;;;;;29.44;41.38;98777.98;105021;1291;22652;-77
2022/08/12 12:58:50;;;;;;;3.60;3.30;;;;;;;29.56;41.19;98770.81;104488;1292;25272;-77
2022/08/12 13:01:25;;;;;;;3.00;2.70;;;;;;;29.60;40.68;98769.86;104949;1290;137254;-78
2022/08/12 13:03:55;;;;;;;3.10;2.90;;;;;;;29.60;40.75;98764.63;104770;1291;25388;-77
2022/08/12 13:06:24;;;;;;;3.10;2.80;;;;;;;29.62;41.29;98761.23;104590;1292;137313;-78
2022/08/12 13:08:54;;;;;;;3.40;3.10;;;;;;;29.65;40.90;98759.15;104918;1287;25628;-78
2022/08/12 13:11:21;;;;;;;4.40;3.40;;;;;;;29.55;40.05;98758.35;105018;1289;137766;-75
2022/08/12 13:13:48;;;;;;;5.10;3.80;;;;;;;29.55;40.99;98759.23;104890;1289;22709;-77
2022/08/12 13:16:19;;;;;;;3.60;3.20;;;;;;;29.62;40.92;98756.44;105316;1287;24306;-78
2022/08/12 13:18:48;;;;;;;3.10;2.80;;;;;;;29.68;40.36;98755.69;104846;1289;137403;-76
2022/08/12 13:21:19;;;;;;;2.70;2.50;;;;;;;29.66;38.97;98757.40;104954;1288;25262;-77
2022/08/12 13:23:49;;;;;;;3.80;2.80;;;;;;;29.67;38.56;98759.13;105945;1289;137166;-77
2022/08/12 13:26:18;;;;;;;2.70;2.50;;;;;;;29.71;38.65;98753.85;105925;1289;22573;-76